createdAt,value
2023-10-30T00:01:05.799Z,56.28
2023-10-30T00:03:32.327Z,56.48
2023-10-30T00:05:58.695Z,56.38
2023-10-30T00:08:25.144Z,56.49
2023-10-30T00:10:51.574Z,56.27
2023-10-30T00:13:18.108Z,56.44
2023-10-30T00:15:44.564Z,56.63
2023-10-30T00:18:11.141Z,56.70
2023-10-30T00:20:37.503Z,56.77
2023-10-30T00:23:04.047Z,56.88
2023-10-30T00:25:30.392Z,56.93
2023-10-30T00:27:56.827Z,57.12
2023-10-30T00:30:23.255Z,57.07
2023-10-30T00:32:49.763Z,57.31
2023-10-30T00:35:16.063Z,57.30
2023-10-30T00:37:42.472Z,57.43
2023-10-30T00:40:08.965Z,57.44
2023-10-30T00:42:35.526Z,57.42
2023-10-30T00:45:01.904Z,57.48
2023-10-30T00:47:28.389Z,57.75
2023-10-30T00:49:54.768Z,57.75
2023-10-30T00:52:21.230Z,57.82
2023-10-30T00:54:47.577Z,57.80
2023-10-30T00:57:14.088Z,57.85
2023-10-30T00:59:40.539Z,57.89
2023-10-30T01:02:07.112Z,57.78
2023-10-30T01:04:33.579Z,57.76
2023-10-30T01:06:59.844Z,57.78
2023-10-30T01:09:26.300Z,57.63
2023-10-30T01:11:52.705Z,57.71
2023-10-30T01:14:19.234Z,57.77
2023-10-30T01:16:45.742Z,57.71
2023-10-30T01:19:12.184Z,57.64
2023-10-30T01:21:38.698Z,57.70
2023-10-30T01:24:05.112Z,57.83
2023-10-30T01:26:31.512Z,57.85
2023-10-30T01:28:58.183Z,57.97
2023-10-30T01:31:24.664Z,58.17
2023-10-30T01:33:51.151Z,58.36
2023-10-30T01:36:17.597Z,57.97
2023-10-30T01:38:43.910Z,58.34
2023-10-30T01:41:10.362Z,58.34
2023-10-30T01:43:36.712Z,58.33
2023-10-30T01:46:03.189Z,58.33
2023-10-30T01:48:29.607Z,58.44
2023-10-30T01:50:56.041Z,58.43
2023-10-30T01:53:22.400Z,58.32
2023-10-30T01:55:48.905Z,58.44
2023-10-30T01:58:15.335Z,58.42
2023-10-30T02:00:41.847Z,58.58
2023-10-30T02:03:08.242Z,58.55
2023-10-30T02:05:34.631Z,58.53
2023-10-30T02:08:00.983Z,58.25
2023-10-30T02:10:27.512Z,58.39
2023-10-30T02:12:53.863Z,58.39
2023-10-30T02:15:20.326Z,58.35
2023-10-30T02:17:46.713Z,58.45
2023-10-30T02:20:13.151Z,58.47
2023-10-30T02:22:39.494Z,58.55
2023-10-30T02:25:06.008Z,58.64
2023-10-30T02:27:32.571Z,58.64
2023-10-30T02:29:58.975Z,58.68
2023-10-30T02:32:25.421Z,58.75
2023-10-30T02:34:52.074Z,58.92
2023-10-30T02:37:18.474Z,58.91
2023-10-30T02:39:44.949Z,58.93
2023-10-30T02:42:11.265Z,59.07
2023-10-30T02:44:37.777Z,58.97
2023-10-30T02:47:04.123Z,58.93
2023-10-30T02:49:30.651Z,58.95
2023-10-30T02:51:57.057Z,59.03
2023-10-30T02:54:23.469Z,59.11
2023-10-30T02:56:49.816Z,59.21
2023-10-30T02:59:16.258Z,59.22
2023-10-30T03:01:42.646Z,59.17
2023-10-30T03:04:09.365Z,59.27
2023-10-30T03:06:35.575Z,59.21
2023-10-30T03:09:02.003Z,59.41
2023-10-30T03:11:28.400Z,59.44
2023-10-30T03:13:54.854Z,59.36
2023-10-30T03:16:21.283Z,59.46
2023-10-30T03:18:47.839Z,59.39
2023-10-30T03:21:14.202Z,59.39
2023-10-30T03:23:40.625Z,59.25
2023-10-30T03:26:06.984Z,59.25
2023-10-30T03:28:33.378Z,59.08
2023-10-30T03:30:59.732Z,58.95
2023-10-30T03:33:26.261Z,58.84
2023-10-30T03:35:52.571Z,58.79
2023-10-30T03:38:19.011Z,58.77
2023-10-30T03:40:45.524Z,58.69
2023-10-30T03:43:11.962Z,58.62
2023-10-30T03:45:38.382Z,58.68
2023-10-30T03:48:04.874Z,58.78
2023-10-30T03:50:31.171Z,58.86
2023-10-30T03:52:57.699Z,58.86
2023-10-30T03:55:24.066Z,58.92
2023-10-30T03:57:50.783Z,59.23
2023-10-30T04:00:17.201Z,59.20
2023-10-30T04:02:43.548Z,59.42
2023-10-30T04:05:09.952Z,59.59
2023-10-30T04:07:36.379Z,59.76
2023-10-30T04:10:02.817Z,60.10
2023-10-30T04:12:29.189Z,60.33
2023-10-30T04:14:55.693Z,60.57
2023-10-30T04:17:22.043Z,61.02
2023-10-30T04:19:48.583Z,61.50
2023-10-30T04:22:14.889Z,61.54
2023-10-30T04:24:41.343Z,61.70
2023-10-30T04:27:07.714Z,61.98
2023-10-30T04:29:34.182Z,62.09
2023-10-30T04:32:00.575Z,62.07
2023-10-30T04:34:26.951Z,62.22
2023-10-30T04:36:53.485Z,62.42
2023-10-30T04:39:19.888Z,62.37
2023-10-30T04:41:46.224Z,62.50
2023-10-30T04:44:12.684Z,62.79
2023-10-30T04:46:39.069Z,62.76
2023-10-30T04:49:05.482Z,62.82
2023-10-30T04:51:31.928Z,62.71
2023-10-30T04:53:58.351Z,62.89
2023-10-30T04:56:24.673Z,62.74
2023-10-30T04:58:51.145Z,62.89
2023-10-30T05:01:17.525Z,63.18
2023-10-30T05:03:44.019Z,63.19
2023-10-30T05:06:10.377Z,62.94
2023-10-30T05:08:36.808Z,63.33
2023-10-30T05:11:03.164Z,63.38
2023-10-30T05:13:29.683Z,63.35
2023-10-30T05:15:56.106Z,63.14
2023-10-30T05:18:22.514Z,62.96
2023-10-30T05:20:48.820Z,63.11
2023-10-30T05:23:15.309Z,62.93
2023-10-30T05:25:43.196Z,62.46
2023-10-30T05:28:08.418Z,62.36
2023-10-30T05:30:35.009Z,62.34
2023-10-30T05:33:01.368Z,62.07
2023-10-30T05:35:27.701Z,61.74
2023-10-30T05:37:54.194Z,61.52
2023-10-30T05:40:20.646Z,61.67
2023-10-30T05:42:47.113Z,61.79
2023-10-30T05:45:13.558Z,62.91
2023-10-30T05:47:40.063Z,63.27
2023-10-30T05:50:06.309Z,63.46
2023-10-30T05:52:32.758Z,63.42
2023-10-30T05:54:59.111Z,63.08
2023-10-30T05:57:25.573Z,63.39
2023-10-30T05:59:52.005Z,63.15
2023-10-30T06:02:18.554Z,63.55
2023-10-30T06:04:44.895Z,63.13
2023-10-30T06:07:11.372Z,63.38
2023-10-30T06:09:37.782Z,63.33
2023-10-30T06:12:04.326Z,63.44
2023-10-30T06:14:30.864Z,63.29
2023-10-30T06:16:57.199Z,63.02
2023-10-30T06:19:23.587Z,63.41
2023-10-30T06:21:50.095Z,63.64
2023-10-30T06:24:16.449Z,62.62
2023-10-30T06:26:42.993Z,62.41
2023-10-30T06:29:09.335Z,61.75
2023-10-30T06:31:35.851Z,61.87
2023-10-30T06:34:02.239Z,62.27
2023-10-30T06:36:28.789Z,62.41
2023-10-30T06:38:55.346Z,61.62
2023-10-30T06:41:21.820Z,61.47
2023-10-30T06:43:48.181Z,61.42
2023-10-30T06:46:14.911Z,61.01
2023-10-30T06:48:41.298Z,61.17
2023-10-30T06:51:07.714Z,60.87
2023-10-30T06:53:34.075Z,59.93
2023-10-30T06:56:00.698Z,60.35
2023-10-30T06:58:27.220Z,60.73
2023-10-30T07:00:53.851Z,61.11
2023-10-30T07:03:21.553Z,60.04
2023-10-30T07:05:47.959Z,59.37
2023-10-30T07:08:14.737Z,58.96
2023-10-30T07:10:41.855Z,58.38
2023-10-30T07:13:08.419Z,58.17
2023-10-30T07:15:35.862Z,61.05
2023-10-30T07:18:04.439Z,58.99
2023-10-30T07:20:30.862Z,56.84
2023-10-30T07:22:57.218Z,56.89
2023-10-30T07:25:23.708Z,57.09
2023-10-30T07:27:50.246Z,56.97
2023-10-30T07:30:16.633Z,56.47
2023-10-30T07:32:43.049Z,55.86
2023-10-30T07:35:09.486Z,55.36
2023-10-30T07:37:35.968Z,56.09
2023-10-30T07:40:02.438Z,56.61
2023-10-30T07:42:28.890Z,55.34
2023-10-30T07:44:55.443Z,55.50
2023-10-30T07:47:33.045Z,55.05
2023-10-30T07:49:48.365Z,54.34
2023-10-30T07:52:14.889Z,52.96
2023-10-30T07:54:41.314Z,52.75
2023-10-30T07:57:07.647Z,52.21
2023-10-30T07:59:34.252Z,52.32
2023-10-30T08:02:00.661Z,51.42
2023-10-30T08:04:27.285Z,51.47
2023-10-30T08:06:53.664Z,51.86
2023-10-30T08:09:20.198Z,51.58
2023-10-30T08:11:46.670Z,51.72
2023-10-30T08:14:13.203Z,52.46
2023-10-30T08:16:39.655Z,52.14
2023-10-30T08:19:06.070Z,52.80
2023-10-30T08:21:32.502Z,52.98
2023-10-30T08:23:58.875Z,50.09
2023-10-30T08:26:25.270Z,50.48
2023-10-30T08:28:51.799Z,51.07
2023-10-30T08:31:18.160Z,49.53
2023-10-30T08:33:44.721Z,49.99
2023-10-30T08:36:11.207Z,50.07
2023-10-30T08:38:37.604Z,47.48
2023-10-30T08:41:03.982Z,45.87
2023-10-30T08:43:30.522Z,46.66
2023-10-30T08:45:56.974Z,47.81
2023-10-30T08:48:23.551Z,47.75
2023-10-30T08:50:49.830Z,47.53
2023-10-30T08:53:16.390Z,47.04
2023-10-30T08:55:42.949Z,46.21
2023-10-30T08:58:09.299Z,46.28
2023-10-30T09:00:35.691Z,47.38
2023-10-30T09:03:02.214Z,46.98
2023-10-30T09:05:28.831Z,46.83
2023-10-30T09:07:55.141Z,46.03
2023-10-30T09:10:21.518Z,44.55
2023-10-30T09:12:48.097Z,45.47
2023-10-30T09:15:14.395Z,44.90
2023-10-30T09:17:40.879Z,44.03
2023-10-30T09:20:07.302Z,44.23
2023-10-30T09:22:33.740Z,43.51
2023-10-30T09:25:00.153Z,43.42
2023-10-30T09:27:26.623Z,44.05
2023-10-30T09:29:52.930Z,44.20
2023-10-30T09:32:19.506Z,43.66
2023-10-30T09:34:45.825Z,42.97
2023-10-30T09:37:12.342Z,43.35
2023-10-30T09:39:38.826Z,43.53
2023-10-30T09:42:05.297Z,44.91
2023-10-30T09:44:31.701Z,43.70
2023-10-30T09:46:58.171Z,42.90
2023-10-30T09:49:24.700Z,42.81
2023-10-30T09:51:51.165Z,43.22
2023-10-30T09:54:17.572Z,42.61
2023-10-30T09:56:43.974Z,42.49
2023-10-30T09:59:10.337Z,41.52
2023-10-30T10:01:37.024Z,42.04
2023-10-30T10:04:03.308Z,41.87
2023-10-30T10:06:29.702Z,41.91
2023-10-30T10:08:56.042Z,41.31
2023-10-30T10:11:22.520Z,40.63
2023-10-30T10:14:03.784Z,40.58
2023-10-30T10:16:15.586Z,40.76
2023-10-30T10:18:41.925Z,41.29
2023-10-30T10:21:08.329Z,40.78
2023-10-30T10:23:34.787Z,39.94
2023-10-30T10:26:01.399Z,39.55
2023-10-30T10:28:27.768Z,39.80
2023-10-30T10:30:54.313Z,39.06
2023-10-30T10:33:23.711Z,39.96
2023-10-30T10:35:50.113Z,39.92
2023-10-30T10:38:16.564Z,41.19
2023-10-30T10:40:44.006Z,41.18
2023-10-30T10:43:09.527Z,41.46
2023-10-30T10:45:36.024Z,39.84
2023-10-30T10:48:02.513Z,39.29
2023-10-30T10:50:28.921Z,38.42
2023-10-30T10:52:55.321Z,38.88
2023-10-30T10:55:21.888Z,38.35
2023-10-30T10:57:48.346Z,38.51
2023-10-30T11:00:14.750Z,38.21
2023-10-30T11:02:41.227Z,37.79
2023-10-30T11:05:07.617Z,37.22
2023-10-30T11:07:34.050Z,37.54
2023-10-30T11:10:00.597Z,36.77
2023-10-30T11:12:26.869Z,38.03
2023-10-30T11:14:53.314Z,37.52
2023-10-30T11:17:19.709Z,37.78
2023-10-30T11:19:46.225Z,37.79
2023-10-30T11:22:12.570Z,37.21
2023-10-30T11:24:39.114Z,38.92
2023-10-30T11:27:05.389Z,39.82
2023-10-30T11:29:31.873Z,39.80
2023-10-30T11:31:58.304Z,39.28
2023-10-30T11:34:24.727Z,37.50
2023-10-30T11:36:51.097Z,37.18
2023-10-30T11:39:17.578Z,37.49
2023-10-30T11:41:44.011Z,37.10
2023-10-30T11:44:10.431Z,37.00
2023-10-30T11:46:36.908Z,37.57
2023-10-30T11:49:04.427Z,37.06
2023-10-30T11:51:30.855Z,36.54
2023-10-30T11:53:57.291Z,37.15
2023-10-30T11:56:23.653Z,37.95
2023-10-30T11:58:50.057Z,37.60
2023-10-30T12:01:16.514Z,38.33
2023-10-30T12:03:43.001Z,37.76
2023-10-30T12:06:09.288Z,38.92
2023-10-30T12:08:35.792Z,36.97
2023-10-30T12:11:02.147Z,34.80
2023-10-30T12:13:28.781Z,35.46
2023-10-30T12:15:55.219Z,36.69
2023-10-30T12:18:21.646Z,35.95
2023-10-30T12:20:48.004Z,35.24
2023-10-30T12:23:14.488Z,38.02
2023-10-30T12:25:40.870Z,35.46
2023-10-30T12:28:10.526Z,35.65
2023-10-30T12:30:37.194Z,35.61
2023-10-30T12:33:03.507Z,34.65
2023-10-30T12:35:29.871Z,35.04
2023-10-30T12:37:56.317Z,34.07
2023-10-30T12:40:22.709Z,34.35
2023-10-30T12:42:49.281Z,34.71
2023-10-30T12:45:15.736Z,34.20
2023-10-30T12:47:43.345Z,34.50
2023-10-30T12:50:09.641Z,34.05
2023-10-30T12:52:36.023Z,34.55
2023-10-30T12:55:02.551Z,34.72
2023-10-30T12:57:28.931Z,35.04
2023-10-30T12:59:55.555Z,34.19
2023-10-30T13:02:22.139Z,34.88
2023-10-30T13:04:48.641Z,35.27
2023-10-30T13:07:14.789Z,35.60
2023-10-30T13:09:41.259Z,37.82
2023-10-30T13:12:07.694Z,37.99
2023-10-30T13:14:34.045Z,35.47
2023-10-30T13:17:00.520Z,35.51
2023-10-30T13:19:27.084Z,35.64
2023-10-30T13:21:53.622Z,35.16
2023-10-30T13:24:19.967Z,35.13
2023-10-30T13:26:46.474Z,36.07
2023-10-30T13:29:13.128Z,34.85
2023-10-30T13:31:39.738Z,35.09
2023-10-30T13:34:06.304Z,35.34
2023-10-30T13:36:32.647Z,36.15
2023-10-30T13:38:58.960Z,35.52
2023-10-30T13:41:25.457Z,35.52
2023-10-30T13:43:53.500Z,35.55
2023-10-30T13:46:18.294Z,35.80
2023-10-30T13:48:44.680Z,35.99
2023-10-30T13:51:11.063Z,35.71
2023-10-30T13:53:37.415Z,36.00
2023-10-30T13:56:03.906Z,35.35
2023-10-30T13:58:30.303Z,35.66
2023-10-30T14:00:56.808Z,35.54
2023-10-30T14:03:23.200Z,35.79
2023-10-30T14:05:49.612Z,35.96
2023-10-30T14:08:16.013Z,35.84
2023-10-30T14:10:42.502Z,35.77
2023-10-30T14:13:09.008Z,36.38
2023-10-30T14:15:35.624Z,36.53
2023-10-30T14:18:02.004Z,36.75
2023-10-30T14:20:28.533Z,36.40
2023-10-30T14:22:54.922Z,36.29
2023-10-30T14:25:21.366Z,36.42
2023-10-30T14:27:47.847Z,36.44
2023-10-30T14:30:14.221Z,36.73
2023-10-30T14:32:40.793Z,37.10
2023-10-30T14:35:07.145Z,37.09
2023-10-30T14:37:33.638Z,37.45
2023-10-30T14:40:00.058Z,37.64
2023-10-30T14:42:26.416Z,37.77
2023-10-30T14:44:53.398Z,37.89
2023-10-30T14:47:19.899Z,38.42
2023-10-30T14:49:46.309Z,38.44
2023-10-30T14:52:12.724Z,38.13
2023-10-30T14:54:39.149Z,38.65
2023-10-30T14:57:05.727Z,38.79
2023-10-30T14:59:32.258Z,38.54
2023-10-30T15:01:58.712Z,38.66
2023-10-30T15:04:25.275Z,38.00
2023-10-30T15:06:51.989Z,38.19
2023-10-30T15:09:18.382Z,38.99
2023-10-30T15:11:44.842Z,38.94
2023-10-30T15:14:11.464Z,39.52
2023-10-30T15:16:39.285Z,39.55
2023-10-30T15:19:06.681Z,39.87
2023-10-30T15:21:33.138Z,39.88
2023-10-30T15:24:01.676Z,40.51
2023-10-30T15:26:28.132Z,40.61
2023-10-30T15:28:54.759Z,40.84
2023-10-30T15:31:21.166Z,41.10
2023-10-30T15:33:47.713Z,41.41
2023-10-30T15:36:14.186Z,41.88
2023-10-30T15:38:40.617Z,42.34
2023-10-30T15:41:07.057Z,42.03
2023-10-30T15:43:33.444Z,42.46
2023-10-30T15:45:59.980Z,42.81
2023-10-30T15:48:26.647Z,42.39
2023-10-30T15:50:55.308Z,42.72
2023-10-30T16:00:43.379Z,43.19
2023-10-30T16:08:02.828Z,45.13
2023-10-30T16:10:30.167Z,43.88
2023-10-30T16:12:55.690Z,44.45
2023-10-30T16:15:22.155Z,45.00
2023-10-30T16:18:20.675Z,45.02
2023-10-30T16:22:41.422Z,45.50
2023-10-30T16:25:09.211Z,45.71
2023-10-30T16:27:35.664Z,46.34
2023-10-30T16:30:02.120Z,45.98
2023-10-30T16:32:28.524Z,46.09
2023-10-30T16:34:54.982Z,46.14
2023-10-30T16:37:21.383Z,45.95
2023-10-30T16:39:48.080Z,45.96
2023-10-30T16:42:14.325Z,45.91
2023-10-30T16:44:40.754Z,46.17
2023-10-30T16:47:07.365Z,46.76
2023-10-30T16:49:33.749Z,46.55
2023-10-30T16:52:04.116Z,46.44
2023-10-30T16:54:30.529Z,46.78
2023-10-30T16:56:56.891Z,46.36
2023-10-30T16:59:23.287Z,47.34
2023-10-30T17:01:49.758Z,47.29
2023-10-30T17:04:16.231Z,47.44
2023-10-30T17:06:42.645Z,47.42
2023-10-30T17:09:09.075Z,46.85
2023-10-30T17:11:35.482Z,47.66
2023-10-30T17:14:01.959Z,47.06
2023-10-30T17:16:28.449Z,46.87
2023-10-30T17:18:54.909Z,47.19
2023-10-30T17:21:21.273Z,46.77
2023-10-30T17:23:47.869Z,46.37
2023-10-30T17:26:14.354Z,47.08
2023-10-30T17:28:40.874Z,47.50
2023-10-30T17:31:07.232Z,47.82
2023-10-30T17:33:36.229Z,47.32
2023-10-30T17:36:02.627Z,46.91
2023-10-30T17:38:29.150Z,47.23
2023-10-30T17:40:55.661Z,47.13
2023-10-30T17:43:22.142Z,46.97
2023-10-30T17:45:48.473Z,46.56
2023-10-30T17:48:15.027Z,46.65
2023-10-30T17:50:41.421Z,47.35
2023-10-30T17:53:07.989Z,48.00
2023-10-30T17:55:34.479Z,47.76
2023-10-30T17:58:00.844Z,47.14
2023-10-30T18:00:27.167Z,46.64
2023-10-30T18:02:53.761Z,46.57
2023-10-30T18:05:20.119Z,46.78
2023-10-30T18:07:48.472Z,46.88
2023-10-30T18:10:12.884Z,47.13
2023-10-30T18:12:39.416Z,48.16
2023-10-30T18:15:05.842Z,47.33
2023-10-30T18:17:32.448Z,47.48
2023-10-30T18:19:58.792Z,47.88
2023-10-30T18:22:25.303Z,47.57
2023-10-30T18:24:51.921Z,48.22
2023-10-30T18:27:18.432Z,47.90
2023-10-30T18:29:44.796Z,48.00
2023-10-30T18:32:11.336Z,48.35
2023-10-30T18:34:37.764Z,49.10
2023-10-30T18:37:04.406Z,49.13
2023-10-30T18:39:30.675Z,49.56
2023-10-30T18:41:57.142Z,49.74
2023-10-30T18:44:23.656Z,50.18
2023-10-30T18:46:50.210Z,50.46
2023-10-30T18:49:16.502Z,50.69
2023-10-30T18:51:42.948Z,50.33
2023-10-30T18:54:09.292Z,50.77
2023-10-30T18:56:35.843Z,51.12
2023-10-30T18:59:02.270Z,51.24
2023-10-30T19:01:28.705Z,51.17
2023-10-30T19:03:56.218Z,50.85
2023-10-30T19:06:21.557Z,50.90
2023-10-30T19:08:47.942Z,51.14
2023-10-30T19:11:14.366Z,51.47
2023-10-30T19:13:40.877Z,52.05
2023-10-30T19:16:07.324Z,52.64
2023-10-30T19:18:33.695Z,52.11
2023-10-30T19:21:00.193Z,52.33
2023-10-30T19:23:26.590Z,51.98
2023-10-30T19:25:53.280Z,51.78
2023-10-30T19:28:19.591Z,52.54
2023-10-30T19:30:46.062Z,52.12
2023-10-30T19:33:12.539Z,51.98
2023-10-30T19:35:38.967Z,52.66
2023-10-30T19:38:05.431Z,53.01
2023-10-30T19:40:34.205Z,52.85
2023-10-30T19:43:01.741Z,52.57
2023-10-30T19:45:28.541Z,52.92
2023-10-30T19:47:54.869Z,52.95
2023-10-30T19:50:21.471Z,53.22
2023-10-30T19:52:47.859Z,53.18
2023-10-30T19:55:16.486Z,53.10
2023-10-30T19:57:42.883Z,56.71
2023-10-30T20:00:09.374Z,55.85
2023-10-30T20:02:36.884Z,55.01
2023-10-30T20:05:03.253Z,54.56
2023-10-30T20:07:30.367Z,54.03
2023-10-30T20:10:09.191Z,53.65
2023-10-30T20:12:23.344Z,53.39
2023-10-30T20:14:51.855Z,53.53
2023-10-30T20:17:18.382Z,53.36
2023-10-30T20:19:44.784Z,53.65
2023-10-30T20:22:11.307Z,53.71
2023-10-30T20:24:37.861Z,53.27
2023-10-30T20:27:04.228Z,54.10
2023-10-30T20:29:30.747Z,54.54
2023-10-30T20:31:57.520Z,53.99
2023-10-30T20:34:23.890Z,53.74
2023-10-30T20:36:50.244Z,53.73
2023-10-30T20:39:17.067Z,53.78
2023-10-30T20:41:43.502Z,53.73
2023-10-30T20:44:09.944Z,54.06
2023-10-30T20:46:36.382Z,53.95
2023-10-30T20:49:03.007Z,53.91
2023-10-30T20:51:29.453Z,54.18
2023-10-30T20:53:57.011Z,54.46
2023-10-30T20:56:23.437Z,54.26
2023-10-30T20:58:49.899Z,54.35
2023-10-30T21:01:16.293Z,54.44
2023-10-30T21:03:42.660Z,54.44
2023-10-30T21:06:09.140Z,54.61
2023-10-30T21:08:35.509Z,54.92
2023-10-30T21:11:01.860Z,54.95
2023-10-30T21:13:28.480Z,54.94
2023-10-30T21:15:54.971Z,55.10
2023-10-30T21:18:21.221Z,55.16
2023-10-30T21:20:47.620Z,55.45
2023-10-30T21:23:14.106Z,55.33
2023-10-30T21:25:40.503Z,55.37
2023-10-30T21:28:06.957Z,55.48
2023-10-30T21:30:33.413Z,55.47
2023-10-30T21:32:59.981Z,55.65
2023-10-30T21:35:26.356Z,55.70
2023-10-30T21:37:52.784Z,55.73
2023-10-30T21:40:19.535Z,55.60
2023-10-30T21:42:45.978Z,55.94
2023-10-30T21:45:12.406Z,56.23
2023-10-30T21:47:38.875Z,56.23
2023-10-30T21:50:05.259Z,56.47
2023-10-30T21:52:31.858Z,56.47
2023-10-30T21:54:58.207Z,56.39
2023-10-30T21:57:24.790Z,56.35
2023-10-30T21:59:51.210Z,56.39
2023-10-30T22:02:17.859Z,56.49
2023-10-30T22:04:44.211Z,56.66
2023-10-30T22:07:12.978Z,56.53
2023-10-30T22:09:39.520Z,56.63
2023-10-30T22:12:05.929Z,56.72
2023-10-30T22:14:32.363Z,56.69
2023-10-30T22:16:58.899Z,56.82
2023-10-30T22:19:25.320Z,56.82
2023-10-30T22:21:51.722Z,57.07
2023-10-30T22:24:18.203Z,57.13
2023-10-30T22:26:44.649Z,57.21
2023-10-30T22:29:11.022Z,57.40
2023-10-30T22:31:37.537Z,57.29
2023-10-30T22:34:03.936Z,57.50
2023-10-30T22:36:30.490Z,57.57
2023-10-30T22:38:56.922Z,57.58
2023-10-30T22:41:23.364Z,57.81
2023-10-30T22:43:49.896Z,57.89
2023-10-30T22:46:16.288Z,58.06
2023-10-30T22:48:42.620Z,58.07
2023-10-30T22:51:09.072Z,58.05
2023-10-30T22:53:35.477Z,57.99
2023-10-30T22:56:01.992Z,58.01
2023-10-30T22:58:28.321Z,57.99
2023-10-30T23:00:54.858Z,58.11
2023-10-30T23:03:21.193Z,58.23
2023-10-30T23:05:47.690Z,58.43
2023-10-30T23:08:14.221Z,58.53
2023-10-30T23:10:40.555Z,58.76
2023-10-30T23:13:06.890Z,58.99
2023-10-30T23:15:33.408Z,59.09
2023-10-30T23:17:59.818Z,59.00
2023-10-30T23:20:26.257Z,59.05
2023-10-30T23:22:52.665Z,59.04
2023-10-30T23:25:19.147Z,59.15
2023-10-30T23:27:45.485Z,59.25
2023-10-30T23:30:12.000Z,59.20
2023-10-30T23:32:38.570Z,59.09
2023-10-30T23:35:04.999Z,59.23
2023-10-30T23:37:31.410Z,59.53
2023-10-30T23:39:57.830Z,59.49
2023-10-30T23:42:24.788Z,59.74
2023-10-30T23:44:51.205Z,59.92
2023-10-30T23:47:17.620Z,59.87
2023-10-30T23:49:44.124Z,59.89
2023-10-30T23:52:10.508Z,60.01
2023-10-30T23:54:38.506Z,60.00
2023-10-30T23:57:03.376Z,60.38
2023-10-30T23:59:29.823Z,60.20
